createdAt,value
2023-05-16T00:01:09.278Z,94808.69
2023-05-16T00:03:38.093Z,94811.84
2023-05-16T00:06:07.682Z,94815.28
2023-05-16T00:08:35.478Z,94809.94
2023-05-16T00:11:03.465Z,94818.63
2023-05-16T00:13:31.821Z,94813.53
2023-05-16T00:16:02.496Z,94803.75
2023-05-16T00:18:30.433Z,94806.22
2023-05-16T00:20:58.614Z,94805.94
2023-05-16T00:23:27.873Z,94806.25
2023-05-16T00:25:56.040Z,94800.25
2023-05-16T00:28:23.953Z,94790.47
2023-05-16T00:30:51.790Z,94795.84
2023-05-16T00:33:19.638Z,94790.94
2023-05-16T00:35:47.475Z,94797.03
2023-05-16T00:38:15.285Z,94797.22
2023-05-16T00:40:44.393Z,94790.34
2023-05-16T00:43:12.243Z,94791.00
2023-05-16T00:45:40.207Z,94790.97
2023-05-16T00:48:09.434Z,94787.41
2023-05-16T00:50:38.701Z,94783.88
2023-05-16T00:53:07.002Z,94788.72
2023-05-16T00:55:34.849Z,94787.50
2023-05-16T00:58:04.246Z,94795.31
2023-05-16T01:00:32.441Z,94792.00
2023-05-16T01:03:01.145Z,94783.81
2023-05-16T01:05:30.310Z,94791.56
2023-05-16T01:07:59.359Z,94782.66
2023-05-16T01:10:33.782Z,94787.69
2023-05-16T01:13:13.451Z,94783.63
2023-05-16T01:15:48.522Z,94787.91
2023-05-16T01:18:25.662Z,94781.66
2023-05-16T01:20:59.687Z,94778.81
2023-05-16T01:23:45.191Z,94778.31
2023-05-16T01:26:23.068Z,94775.59
2023-05-16T01:28:52.351Z,94772.44
2023-05-16T01:31:20.947Z,94773.34
2023-05-16T01:33:49.955Z,94776.00
2023-05-16T01:36:26.429Z,94764.50
2023-05-16T01:39:08.531Z,94776.53
2023-05-16T01:41:48.678Z,94779.53
2023-05-16T01:44:23.527Z,94779.16
2023-05-16T01:46:57.659Z,94764.38
2023-05-16T01:49:31.753Z,94768.97
2023-05-16T01:52:03.141Z,94768.19
2023-05-16T01:54:33.574Z,94762.75
2023-05-16T01:57:08.308Z,94766.66
2023-05-16T01:59:37.152Z,94762.72
2023-05-16T02:02:05.045Z,94761.56
2023-05-16T02:04:32.898Z,94758.78
2023-05-16T02:07:01.984Z,94774.63
2023-05-16T02:09:29.780Z,94756.28
2023-05-16T02:11:57.561Z,94758.72
2023-05-16T02:14:27.218Z,94764.75
2023-05-16T02:16:55.284Z,94767.47
2023-05-16T02:19:23.243Z,94767.16
2023-05-16T02:21:51.607Z,94775.50
2023-05-16T02:24:19.419Z,94767.94
2023-05-16T02:26:47.266Z,94770.94
2023-05-16T02:29:16.244Z,94764.81
2023-05-16T02:31:45.542Z,94762.97
2023-05-16T02:34:15.960Z,94773.59
2023-05-16T02:36:43.846Z,94763.03
2023-05-16T02:39:11.700Z,94773.22
2023-05-16T02:41:40.273Z,94771.94
2023-05-16T02:44:09.742Z,94773.16
2023-05-16T02:46:37.690Z,94775.75
2023-05-16T02:49:07.223Z,94771.38
2023-05-16T02:51:35.098Z,94770.44
2023-05-16T02:54:03.044Z,94768.00
2023-05-16T02:56:30.960Z,94765.81
2023-05-16T02:59:00.791Z,94767.72
2023-05-16T03:01:28.832Z,94762.25
2023-05-16T03:03:57.066Z,94772.00
2023-05-16T03:06:26.394Z,94771.81
2023-05-16T03:08:54.179Z,94775.72
2023-05-16T03:11:24.111Z,94764.09
2023-05-16T03:13:51.999Z,94756.66
2023-05-16T03:16:19.869Z,94777.69
2023-05-16T03:18:47.796Z,94771.88
2023-05-16T03:21:15.930Z,94764.41
2023-05-16T03:23:49.295Z,94758.91
2023-05-16T03:26:17.378Z,94769.63
2023-05-16T03:28:45.320Z,94771.66
2023-05-16T03:31:13.172Z,94766.38
2023-05-16T03:33:43.754Z,94756.81
2023-05-16T03:36:11.845Z,94764.25
2023-05-16T03:38:39.801Z,94774.81
2023-05-16T03:41:11.055Z,94769.09
2023-05-16T03:43:39.115Z,94769.16
2023-05-16T03:46:06.992Z,94763.66
2023-05-16T03:48:34.911Z,94758.91
2023-05-16T03:51:02.693Z,94754.09
2023-05-16T03:53:30.526Z,94761.28
2023-05-16T03:55:58.328Z,94753.00
2023-05-16T03:58:27.484Z,94760.50
2023-05-16T04:00:55.316Z,94749.06
2023-05-16T04:03:28.524Z,94759.41
2023-05-16T04:05:57.293Z,94760.56
2023-05-16T04:08:25.749Z,94761.59
2023-05-16T04:10:53.571Z,94761.88
2023-05-16T04:13:21.383Z,94752.00
2023-05-16T04:15:50.557Z,94758.34
2023-05-16T04:18:19.404Z,94757.81
2023-05-16T04:20:47.616Z,94760.75
2023-05-16T04:23:15.421Z,94775.63
2023-05-16T04:25:43.228Z,94770.31
2023-05-16T04:28:11.103Z,94769.41
2023-05-16T04:30:38.945Z,94780.50
2023-05-16T04:33:08.377Z,94779.47
2023-05-16T04:35:37.664Z,94784.28
2023-05-16T04:38:05.558Z,94778.75
2023-05-16T04:40:33.990Z,94784.53
2023-05-16T04:43:01.890Z,94779.41
2023-05-16T04:45:29.800Z,94767.22
2023-05-16T04:47:57.962Z,94761.38
2023-05-16T04:50:27.248Z,94753.91
2023-05-16T04:52:56.578Z,94762.59
2023-05-16T04:55:24.731Z,94759.66
2023-05-16T04:57:52.903Z,94758.31
2023-05-16T05:00:23.899Z,94763.66
2023-05-16T05:02:51.818Z,94766.03
2023-05-16T05:05:20.228Z,94764.91
2023-05-16T05:07:49.635Z,94767.66
2023-05-16T05:10:17.555Z,94767.06
2023-05-16T05:12:45.362Z,94762.16
2023-05-16T05:15:13.514Z,94764.69
2023-05-16T05:17:41.462Z,94772.53
2023-05-16T05:20:10.439Z,94772.31
2023-05-16T05:22:38.255Z,94778.00
2023-05-16T05:25:08.355Z,94785.78
2023-05-16T05:27:36.666Z,94777.09
2023-05-16T05:30:05.407Z,94777.31
2023-05-16T05:32:35.828Z,94782.41
2023-05-16T05:35:03.861Z,94779.53
2023-05-16T05:37:31.956Z,94774.09
2023-05-16T05:39:59.753Z,94773.56
2023-05-16T05:42:31.548Z,94775.06
2023-05-16T05:44:59.323Z,94770.91
2023-05-16T05:47:27.265Z,94771.56
2023-05-16T05:49:55.170Z,94768.09
2023-05-16T05:52:23.087Z,94763.56
2023-05-16T05:54:57.961Z,94761.81
2023-05-16T05:57:25.910Z,94766.72
2023-05-16T05:59:55.118Z,94761.94
2023-05-16T06:02:22.914Z,94767.06
2023-05-16T06:04:50.760Z,94760.94
2023-05-16T06:07:18.543Z,94757.25
2023-05-16T06:09:46.780Z,94761.47
2023-05-16T06:12:14.558Z,94754.84
2023-05-16T06:14:42.317Z,94760.91
2023-05-16T06:17:11.537Z,94752.91
2023-05-16T06:19:39.447Z,94759.13
2023-05-16T06:22:07.229Z,94760.56
2023-05-16T06:24:38.034Z,94753.25
2023-05-16T06:27:06.315Z,94753.78
2023-05-16T06:29:34.160Z,94766.38
2023-05-16T06:32:02.018Z,94758.88
2023-05-16T06:34:32.231Z,94766.75
2023-05-16T06:37:00.844Z,94761.31
2023-05-16T06:39:28.645Z,94764.59
2023-05-16T06:41:56.791Z,94766.28
2023-05-16T06:44:24.979Z,94768.28
2023-05-16T06:46:53.035Z,94773.44
2023-05-16T06:49:20.973Z,94771.84
2023-05-16T06:51:50.234Z,94777.41
2023-05-16T06:54:18.176Z,94769.28
2023-05-16T06:56:47.185Z,94777.28
2023-05-16T06:59:15.131Z,94782.56
2023-05-16T07:01:46.036Z,94780.66
2023-05-16T07:04:14.274Z,94776.91
2023-05-16T07:06:42.166Z,94788.09
2023-05-16T07:09:11.493Z,94784.00
2023-05-16T07:11:39.392Z,94782.84
2023-05-16T07:14:07.201Z,94777.47
2023-05-16T07:16:37.018Z,94790.47
2023-05-16T07:19:05.029Z,94787.28
2023-05-16T07:21:33.027Z,94782.50
2023-05-16T07:24:01.335Z,94777.22
2023-05-16T07:26:30.714Z,94786.72
2023-05-16T07:28:58.980Z,94781.75
2023-05-16T07:31:26.905Z,94795.06
2023-05-16T07:33:54.817Z,94783.19
2023-05-16T07:36:22.679Z,94779.72
2023-05-16T07:38:50.585Z,94786.72
2023-05-16T07:41:18.459Z,94782.94
2023-05-16T07:43:47.658Z,94783.16
2023-05-16T07:46:15.625Z,94787.41
2023-05-16T07:48:43.772Z,94789.22
2023-05-16T07:51:11.571Z,94791.38
2023-05-16T07:53:39.519Z,94803.09
2023-05-16T07:56:08.732Z,94796.72
2023-05-16T07:58:39.063Z,94809.47
2023-05-16T08:01:13.561Z,94814.84
2023-05-16T08:03:41.537Z,94807.41
2023-05-16T08:06:09.607Z,94810.97
2023-05-16T08:08:38.023Z,94807.34
2023-05-16T08:11:06.745Z,94806.63
2023-05-16T08:13:34.687Z,94799.72
2023-05-16T08:16:02.848Z,94808.56
2023-05-16T08:18:32.497Z,94801.84
2023-05-16T08:21:02.136Z,94803.84
2023-05-16T08:23:30.156Z,94813.97
2023-05-16T08:25:58.763Z,94808.03
2023-05-16T08:28:26.600Z,94806.97
2023-05-16T08:30:54.585Z,94815.28
2023-05-16T08:33:22.510Z,94802.81
2023-05-16T08:35:52.785Z,94814.34
2023-05-16T08:38:20.885Z,94809.81
2023-05-16T08:40:48.885Z,94797.44
2023-05-16T08:43:16.827Z,94807.34
2023-05-16T08:45:44.881Z,94802.72
2023-05-16T08:48:12.964Z,94803.25
2023-05-16T08:50:42.805Z,94807.69
2023-05-16T08:53:15.908Z,94809.97
2023-05-16T08:55:45.505Z,94812.72
2023-05-16T08:58:14.764Z,94804.78
2023-05-16T09:00:43.223Z,94802.22
2023-05-16T09:03:11.596Z,94790.47
2023-05-16T09:05:42.842Z,94790.47
2023-05-16T09:08:12.606Z,94793.41
2023-05-16T09:10:40.631Z,94791.41
2023-05-16T09:13:08.543Z,94791.22
2023-05-16T09:15:38.098Z,94780.09
2023-05-16T09:18:06.093Z,94796.34
2023-05-16T09:20:34.413Z,94796.41
2023-05-16T09:23:03.325Z,94797.34
2023-05-16T09:25:32.851Z,94805.56
2023-05-16T09:28:03.398Z,94800.09
2023-05-16T09:30:33.854Z,94801.72
2023-05-16T09:33:02.505Z,94793.72
2023-05-16T09:35:43.806Z,94779.66
2023-05-16T09:38:17.074Z,94786.38
2023-05-16T09:40:47.414Z,94773.72
2023-05-16T09:43:18.017Z,94771.81
2023-05-16T09:45:50.594Z,94773.78
2023-05-16T09:48:19.074Z,94783.25
2023-05-16T09:50:52.961Z,94791.25
2023-05-16T09:53:27.585Z,94780.72
2023-05-16T09:56:04.568Z,94782.09
2023-05-16T09:58:33.268Z,94790.25
2023-05-16T10:01:01.552Z,94788.84
2023-05-16T10:03:30.547Z,94799.13
2023-05-16T10:05:58.673Z,94801.44
2023-05-16T10:08:27.784Z,94808.47
2023-05-16T10:10:57.507Z,94798.75
2023-05-16T10:13:30.817Z,94787.69
2023-05-16T10:16:00.318Z,94798.72
2023-05-16T10:18:31.576Z,94798.66
2023-05-16T10:21:05.501Z,94796.88
2023-05-16T10:23:34.841Z,94799.94
2023-05-16T10:26:06.180Z,94794.09
2023-05-16T10:28:36.688Z,94802.28
2023-05-16T10:31:06.505Z,94811.09
2023-05-16T10:33:34.569Z,94799.75
2023-05-16T10:36:05.630Z,94813.91
2023-05-16T10:38:34.853Z,94805.63
2023-05-16T10:41:03.299Z,94807.00
2023-05-16T10:43:33.373Z,94794.78
2023-05-16T10:46:05.538Z,94791.16
2023-05-16T10:48:34.979Z,94795.13
2023-05-16T10:51:04.428Z,94797.38
2023-05-16T10:53:34.330Z,94789.59
2023-05-16T10:56:10.772Z,94780.44
2023-05-16T10:58:46.017Z,94783.94
2023-05-16T11:01:20.603Z,94783.47
2023-05-16T11:04:06.899Z,94785.69
2023-05-16T11:06:36.257Z,94783.16
2023-05-16T11:09:10.318Z,94771.88
2023-05-16T11:11:44.863Z,94771.88
2023-05-16T11:14:23.243Z,94774.63
2023-05-16T11:16:53.651Z,94771.63
2023-05-16T11:19:31.989Z,94760.13
2023-05-16T11:22:09.454Z,94760.25
2023-05-16T11:24:39.114Z,94763.56
2023-05-16T11:27:07.657Z,94772.31
2023-05-16T11:29:37.385Z,94770.19
2023-05-16T11:32:11.479Z,94780.97
2023-05-16T11:34:39.766Z,94785.22
2023-05-16T11:37:07.940Z,94760.56
2023-05-16T11:39:36.000Z,94766.66
2023-05-16T11:42:07.293Z,94756.31
2023-05-16T11:44:38.534Z,94739.31
2023-05-16T11:47:08.507Z,94752.00
2023-05-16T11:49:36.811Z,94747.47
2023-05-16T11:52:05.150Z,94757.41
2023-05-16T11:54:34.600Z,94762.16
2023-05-16T11:57:03.179Z,94770.94
2023-05-16T11:59:31.303Z,94754.72
2023-05-16T12:01:59.241Z,94754.16
2023-05-16T12:04:29.687Z,94765.69
2023-05-16T12:07:02.843Z,94770.44
2023-05-16T12:09:30.893Z,94762.59
2023-05-16T12:11:58.888Z,94770.03
2023-05-16T12:14:27.571Z,94758.81
2023-05-16T12:16:56.053Z,94772.22
2023-05-16T12:19:24.431Z,94782.84
2023-05-16T12:21:56.775Z,94796.00
2023-05-16T12:24:30.991Z,94801.53
2023-05-16T12:26:59.053Z,94797.50
2023-05-16T12:29:26.989Z,94801.19
2023-05-16T12:31:54.922Z,94804.56
2023-05-16T12:34:23.388Z,94802.81
2023-05-16T12:36:56.233Z,94801.22
2023-05-16T12:39:24.169Z,94801.56
2023-05-16T12:41:52.139Z,94808.81
2023-05-16T12:44:23.787Z,94805.09
2023-05-16T12:46:52.801Z,94801.63
2023-05-16T12:49:22.721Z,94807.19
2023-05-16T12:51:52.336Z,94800.69
2023-05-16T12:54:23.035Z,94788.50
2023-05-16T12:56:51.204Z,94802.13
2023-05-16T12:59:20.320Z,94786.41
2023-05-16T13:01:48.533Z,94804.38
2023-05-16T13:04:19.544Z,94810.75
2023-05-16T13:09:19.199Z,94805.09
2023-05-16T13:11:48.477Z,94798.44
2023-05-16T13:14:17.341Z,94803.78
2023-05-16T13:16:45.634Z,94801.31
2023-05-16T13:19:13.651Z,94795.03
2023-05-16T13:21:41.754Z,94797.94
2023-05-16T13:24:09.702Z,94798.72
2023-05-16T13:26:37.533Z,94804.59
2023-05-16T13:29:06.762Z,94799.31
2023-05-16T13:31:34.623Z,94794.28
2023-05-16T13:34:02.501Z,94789.66
2023-05-16T13:36:41.461Z,94787.72
2023-05-16T13:39:18.008Z,94795.28
2023-05-16T13:41:47.361Z,94802.56
2023-05-16T13:44:18.105Z,94792.16
2023-05-16T13:46:46.317Z,94798.66
2023-05-16T13:49:14.212Z,94787.69
2023-05-16T13:51:42.026Z,94788.22
2023-05-16T13:54:10.206Z,94783.00
2023-05-16T13:56:38.108Z,94784.91
2023-05-16T13:59:07.244Z,94767.47
2023-05-16T14:01:37.525Z,94769.22
2023-05-16T14:04:05.815Z,94767.50
2023-05-16T14:06:33.682Z,94768.47
2023-05-16T14:09:01.521Z,94775.50
2023-05-16T14:11:29.786Z,94785.19
2023-05-16T14:13:58.255Z,94782.34
2023-05-16T14:16:26.225Z,94770.31
2023-05-16T14:18:55.902Z,94778.78
2023-05-16T14:21:23.801Z,94780.00
2023-05-16T14:23:51.917Z,94783.03
2023-05-16T14:26:22.589Z,94779.75
2023-05-16T14:28:50.847Z,94792.41
2023-05-16T14:31:18.970Z,94792.47
2023-05-16T14:33:46.911Z,94794.47
2023-05-16T14:36:16.288Z,94804.16
2023-05-16T14:38:44.113Z,94804.31
2023-05-16T14:41:11.995Z,94794.81
2023-05-16T14:43:39.924Z,94803.28
2023-05-16T14:46:07.863Z,94808.97
2023-05-16T14:48:35.745Z,94816.25
2023-05-16T14:51:03.590Z,94824.41
2023-05-16T14:53:32.830Z,94820.94
2023-05-16T14:56:02.724Z,94819.44
2023-05-16T14:58:30.719Z,94830.81
2023-05-16T15:00:58.607Z,94836.81
2023-05-16T15:03:26.702Z,94835.44
2023-05-16T15:05:54.726Z,94836.16
2023-05-16T15:08:23.010Z,94838.13
2023-05-16T15:10:52.212Z,94843.59
2023-05-16T15:13:20.002Z,94849.06
2023-05-16T15:15:47.890Z,94844.91
2023-05-16T15:18:17.914Z,94842.34
2023-05-16T15:20:45.949Z,94846.94
2023-05-16T15:23:13.962Z,94850.34
2023-05-16T15:25:41.797Z,94834.94
2023-05-16T15:28:11.031Z,94844.63
2023-05-16T15:30:38.938Z,94844.19
2023-05-16T15:33:06.865Z,94844.19
2023-05-16T15:35:34.705Z,94844.59
2023-05-16T15:38:02.509Z,94850.13
2023-05-16T15:40:30.354Z,94843.72
2023-05-16T15:42:58.197Z,94870.47
2023-05-16T15:45:27.604Z,94847.16
2023-05-16T15:47:55.645Z,94855.78
2023-05-16T15:50:23.771Z,94850.34
2023-05-16T15:52:51.590Z,94854.72
2023-05-16T15:55:19.546Z,94847.88
2023-05-16T15:57:47.354Z,94850.53
2023-05-16T16:00:16.438Z,94855.66
2023-05-16T16:02:46.230Z,94866.78
2023-05-16T16:05:14.438Z,94863.41
2023-05-16T16:07:42.272Z,94863.59
2023-05-16T16:10:11.388Z,94866.84
2023-05-16T16:12:39.242Z,94857.75
2023-05-16T16:15:08.176Z,94860.31
2023-05-16T16:17:36.082Z,94856.69
2023-05-16T16:20:06.047Z,94863.94
2023-05-16T16:22:33.945Z,94867.31
2023-05-16T16:25:01.758Z,94861.78
2023-05-16T16:27:29.662Z,94864.75
2023-05-16T16:29:57.746Z,94873.66
2023-05-16T16:32:26.008Z,94871.47
2023-05-16T16:34:53.875Z,94871.97
2023-05-16T16:37:23.141Z,94873.94
2023-05-16T16:39:50.989Z,94881.06
2023-05-16T16:42:18.763Z,94882.03
2023-05-16T16:44:46.601Z,94888.97
2023-05-16T16:47:14.460Z,94879.50
2023-05-16T16:49:42.386Z,94892.56
2023-05-16T16:52:10.506Z,94884.47
2023-05-16T16:54:39.806Z,94890.53
2023-05-16T16:57:07.707Z,94891.78
2023-05-16T16:59:35.864Z,94888.25
2023-05-16T17:02:03.762Z,94893.38
2023-05-16T17:04:31.710Z,94891.19
2023-05-16T17:06:59.625Z,94895.53
2023-05-16T17:09:27.586Z,94895.53
2023-05-16T17:12:28.830Z,94898.50
2023-05-16T17:14:57.254Z,94912.25
2023-05-16T17:17:26.999Z,94907.09
2023-05-16T17:19:54.927Z,94910.66
2023-05-16T17:22:22.822Z,94905.25
2023-05-16T17:24:50.685Z,94913.41
2023-05-16T17:27:20.103Z,94915.41
2023-05-16T17:29:47.944Z,94903.91
2023-05-16T17:32:17.300Z,94905.91
2023-05-16T17:34:47.348Z,94900.38
2023-05-16T17:37:15.207Z,94900.97
2023-05-16T17:39:43.081Z,94907.50
2023-05-16T17:42:11.780Z,94907.91
2023-05-16T17:44:41.943Z,94899.00
2023-05-16T17:47:09.792Z,94906.13
2023-05-16T17:49:37.733Z,94900.81
2023-05-16T17:52:06.134Z,94909.13
2023-05-16T17:54:34.162Z,94907.50
2023-05-16T17:57:02.094Z,94910.03
2023-05-16T17:59:30.037Z,94912.41
2023-05-16T18:01:59.526Z,94920.66
2023-05-16T18:04:27.635Z,94916.91
2023-05-16T18:06:56.232Z,94922.03
2023-05-16T18:09:24.251Z,94913.59
2023-05-16T18:11:52.284Z,94924.78
2023-05-16T18:14:20.374Z,94923.22
2023-05-16T18:16:48.247Z,94929.72
2023-05-16T18:19:17.567Z,94932.88
2023-05-16T18:21:45.568Z,94931.13
2023-05-16T18:24:13.700Z,94931.75
2023-05-16T18:26:41.996Z,94934.13
2023-05-16T18:29:10.776Z,94939.47
2023-05-16T18:31:42.392Z,94946.50
2023-05-16T18:34:11.457Z,94947.13
2023-05-16T18:36:40.743Z,94941.84
2023-05-16T18:39:10.575Z,94944.66
2023-05-16T18:41:38.467Z,94953.50
2023-05-16T18:44:06.404Z,94955.06
2023-05-16T18:46:34.269Z,94951.13
2023-05-16T18:49:02.248Z,94958.47
2023-05-16T18:51:30.202Z,94961.81
2023-05-16T18:53:59.425Z,94968.53
2023-05-16T18:56:27.410Z,94982.38
2023-05-16T18:58:55.666Z,94990.44
2023-05-16T19:01:23.646Z,94996.91
2023-05-16T19:03:51.865Z,94988.81
2023-05-16T19:06:19.772Z,94995.31
2023-05-16T19:08:48.440Z,94993.34
2023-05-16T19:11:18.790Z,94995.50
2023-05-16T19:13:47.113Z,95016.38
2023-05-16T19:16:15.052Z,95011.44
2023-05-16T19:18:43.046Z,95006.88
2023-05-16T19:21:13.514Z,95006.84
2023-05-16T19:23:41.587Z,95017.13
2023-05-16T19:26:09.463Z,95020.91
2023-05-16T19:28:40.772Z,95025.97
2023-05-16T19:31:08.627Z,95030.09
2023-05-16T19:33:36.969Z,95038.75
2023-05-16T19:36:06.223Z,95044.66
2023-05-16T19:38:34.058Z,95046.63
2023-05-16T19:41:01.939Z,95042.53
2023-05-16T19:43:30.016Z,95066.53
2023-05-16T19:45:59.228Z,95058.44
2023-05-16T19:48:27.921Z,95069.06
2023-05-16T19:50:56.099Z,95057.16
2023-05-16T19:53:23.938Z,95070.38
2023-05-16T19:55:53.172Z,95065.88
2023-05-16T19:58:21.058Z,95065.47
2023-05-16T20:00:48.889Z,95072.16
2023-05-16T20:03:18.158Z,95082.75
2023-05-16T20:05:46.177Z,95082.94
2023-05-16T20:08:14.107Z,95085.13
2023-05-16T20:10:41.948Z,95094.38
2023-05-16T20:13:09.766Z,95089.34
2023-05-16T20:15:37.647Z,95083.03
2023-05-16T20:18:05.771Z,95095.88
2023-05-16T20:20:35.036Z,95094.41
2023-05-16T20:23:03.676Z,95084.41
2023-05-16T20:25:32.236Z,95077.78
2023-05-16T20:28:00.128Z,95087.22
2023-05-16T20:30:28.080Z,95077.84
2023-05-16T20:32:56.078Z,95093.38
2023-05-16T20:35:24.236Z,95092.16
2023-05-16T20:37:53.524Z,95109.31
2023-05-16T20:40:21.581Z,95105.38
2023-05-16T20:42:49.448Z,95104.66
2023-05-16T20:45:17.297Z,95117.00
2023-05-16T20:47:45.313Z,95111.09
2023-05-16T20:50:13.194Z,95107.97
2023-05-16T20:52:41.192Z,95108.47
2023-05-16T20:55:10.700Z,95105.56
2023-05-16T20:57:38.526Z,95104.88
2023-05-16T21:00:08.428Z,95109.63
2023-05-16T21:02:36.316Z,95114.41
2023-05-16T21:05:22.942Z,95114.41
2023-05-16T21:07:52.287Z,95118.13
2023-05-16T21:10:21.556Z,95125.75
2023-05-16T21:12:50.149Z,95125.06
2023-05-16T21:15:18.053Z,95127.31
2023-05-16T21:17:46.091Z,95125.06
2023-05-16T21:20:14.152Z,95135.06
2023-05-16T21:22:42.525Z,95133.91
2023-05-16T21:25:11.914Z,95140.09
2023-05-16T21:27:41.193Z,95141.03
2023-05-16T21:30:10.060Z,95142.00
2023-05-16T21:32:37.985Z,95150.59
2023-05-16T21:35:06.963Z,95154.53
2023-05-16T21:37:34.875Z,95159.22
2023-05-16T21:40:02.816Z,95162.56
2023-05-16T21:42:30.880Z,95165.56
2023-05-16T21:45:00.076Z,95165.44
2023-05-16T21:47:27.949Z,95172.75
2023-05-16T21:49:55.820Z,95180.91
2023-05-16T21:52:23.626Z,95183.56
2023-05-16T21:54:51.868Z,95189.97
2023-05-16T21:57:20.445Z,95184.69
2023-05-16T21:59:50.463Z,95194.00
2023-05-16T22:02:22.987Z,95193.00
2023-05-16T22:04:51.358Z,95200.13
2023-05-16T22:07:19.248Z,95197.47
2023-05-16T22:09:50.673Z,95203.09
2023-05-16T22:12:18.553Z,95205.50
2023-05-16T22:14:46.383Z,95205.72
2023-05-16T22:17:14.259Z,95202.16
2023-05-16T22:19:43.609Z,95204.28
2023-05-16T22:22:12.338Z,95218.03
2023-05-16T22:24:40.367Z,95218.91
2023-05-16T22:27:08.402Z,95224.25
2023-05-16T22:29:38.800Z,95218.81
2023-05-16T22:32:08.450Z,95230.16
2023-05-16T22:34:39.368Z,95224.19
2023-05-16T22:37:09.155Z,95238.91
2023-05-16T22:39:37.261Z,95217.84
2023-05-16T22:42:05.711Z,95228.84
2023-05-16T22:44:33.656Z,95237.66
2023-05-16T22:47:01.613Z,95239.78
2023-05-16T22:49:29.487Z,95232.47
2023-05-16T22:51:57.374Z,95232.81
2023-05-16T22:54:26.667Z,95234.13
2023-05-16T22:56:54.506Z,95241.28
2023-05-16T22:59:22.513Z,95230.34
2023-05-16T23:01:50.450Z,95243.50
2023-05-16T23:04:18.267Z,95245.81
2023-05-16T23:06:46.134Z,95244.69
2023-05-16T23:09:13.991Z,95263.28
2023-05-16T23:11:43.156Z,95261.34
2023-05-16T23:14:11.118Z,95267.06
2023-05-16T23:16:38.917Z,95262.97
2023-05-16T23:19:09.146Z,95260.56
2023-05-16T23:21:37.554Z,95257.47
2023-05-16T23:24:05.558Z,95262.25
2023-05-16T23:26:33.431Z,95269.81
2023-05-16T23:29:02.707Z,95265.78
2023-05-16T23:31:30.631Z,95272.50
2023-05-16T23:33:58.631Z,95272.94
2023-05-16T23:36:26.502Z,95268.78
2023-05-16T23:38:54.294Z,95271.50
2023-05-16T23:41:22.149Z,95286.78
2023-05-16T23:43:50.013Z,95287.22
2023-05-16T23:46:19.216Z,95284.47
2023-05-16T23:48:47.094Z,95285.88
2023-05-16T23:51:15.025Z,95280.84
2023-05-16T23:53:42.839Z,95288.03
2023-05-16T23:56:10.671Z,95285.75
2023-05-16T23:58:38.479Z,95290.41
